createdAt,value
2023-01-30T00:00:07.566Z,10.77
2023-01-30T00:02:35.033Z,10.55
2023-01-30T00:05:02.143Z,10.23
2023-01-30T00:07:29.267Z,11.63
2023-01-30T00:09:56.699Z,9.38
2023-01-30T00:12:24.538Z,10.57
2023-01-30T00:14:51.623Z,11.15
2023-01-30T00:17:19.046Z,10.52
2023-01-30T00:19:46.138Z,9.57
2023-01-30T00:22:13.272Z,9.75
2023-01-30T00:24:40.821Z,10.45
2023-01-30T00:27:08.253Z,10.85
2023-01-30T00:29:36.113Z,9.43
2023-01-30T00:32:03.526Z,9.73
2023-01-30T00:34:30.804Z,10.20
2023-01-30T00:37:07.871Z,9.23
2023-01-30T00:39:35.919Z,8.80
2023-01-30T00:42:21.626Z,9.73
2023-01-30T00:45:07.629Z,9.50
2023-01-30T00:47:34.731Z,8.65
2023-01-30T00:50:02.326Z,10.13
2023-01-30T00:52:29.438Z,9.80
2023-01-30T00:54:56.609Z,10.38
2023-01-30T00:57:24.152Z,8.80
2023-01-30T00:59:51.236Z,9.90
2023-01-30T01:02:18.397Z,9.18
2023-01-30T01:04:45.892Z,9.35
2023-01-30T01:07:13.699Z,9.93
2023-01-30T01:09:41.838Z,9.00
2023-01-30T01:12:09.428Z,9.75
2023-01-30T01:14:36.674Z,9.05
2023-01-30T01:17:03.961Z,10.25
2023-01-30T01:19:31.496Z,8.88
2023-01-30T01:21:59.716Z,9.75
2023-01-30T01:24:27.864Z,9.40
2023-01-30T01:26:55.283Z,9.18
2023-01-30T01:29:22.541Z,10.27
2023-01-30T01:31:50.569Z,10.10
2023-01-30T01:34:18.009Z,10.30
2023-01-30T01:36:54.164Z,9.50
2023-01-30T01:39:22.300Z,9.18
2023-01-30T01:41:50.598Z,10.40
2023-01-30T01:44:17.715Z,10.13
2023-01-30T01:46:50.548Z,9.32
2023-01-30T01:49:25.133Z,8.73
2023-01-30T01:51:58.629Z,9.50
2023-01-30T01:55:02.373Z,9.13
2023-01-30T01:57:46.313Z,10.05
2023-01-30T02:00:16.389Z,8.23
2023-01-30T02:02:50.784Z,9.73
2023-01-30T02:08:04.669Z,8.35
2023-01-30T02:10:42.708Z,7.60
2023-01-30T02:13:09.846Z,8.65
2023-01-30T02:15:37.460Z,8.73
2023-01-30T02:18:04.903Z,9.10
2023-01-30T02:20:50.630Z,8.80
2023-01-30T02:23:36.275Z,9.50
2023-01-30T02:26:18.905Z,8.75
2023-01-30T02:29:06.876Z,8.90
2023-01-30T02:31:55.247Z,7.97
2023-01-30T02:34:34.690Z,8.65
2023-01-30T02:37:20.671Z,10.27
2023-01-30T02:39:56.408Z,8.70
2023-01-30T02:42:45.100Z,9.13
2023-01-30T02:45:28.516Z,7.78
2023-01-30T02:48:11.013Z,9.10
2023-01-30T02:50:49.351Z,9.10
2023-01-30T02:53:16.638Z,8.63
2023-01-30T02:55:44.615Z,9.73
2023-01-30T02:58:12.717Z,7.45
2023-01-30T03:00:56.092Z,8.68
2023-01-30T03:03:38.181Z,8.10
2023-01-30T03:06:23.831Z,8.63
2023-01-30T03:09:32.758Z,8.57
2023-01-30T03:12:26.532Z,7.30
2023-01-30T03:15:27.219Z,9.23
2023-01-30T03:17:54.987Z,8.07
2023-01-30T03:20:22.456Z,9.32
2023-01-30T03:22:50.161Z,8.18
2023-01-30T03:25:21.840Z,8.50
2023-01-30T03:27:51.501Z,8.57
2023-01-30T03:30:19.178Z,7.50
2023-01-30T03:32:47.768Z,9.05
2023-01-30T03:35:18.244Z,8.45
2023-01-30T03:37:46.399Z,8.52
2023-01-30T03:40:15.076Z,7.20
2023-01-30T03:42:42.759Z,8.10
2023-01-30T03:45:11.121Z,7.72
2023-01-30T03:47:38.266Z,7.22
2023-01-30T03:50:06.121Z,7.45
2023-01-30T03:52:35.420Z,8.40
2023-01-30T03:55:03.061Z,6.97
2023-01-30T03:57:30.939Z,8.15
2023-01-30T03:59:58.046Z,8.55
2023-01-30T04:02:26.300Z,7.12
2023-01-30T04:04:54.056Z,7.82
2023-01-30T04:07:21.491Z,7.55
2023-01-30T04:09:49.429Z,8.00
2023-01-30T04:12:17.275Z,8.25
2023-01-30T04:14:46.058Z,8.90
2023-01-30T04:17:14.017Z,9.27
2023-01-30T04:19:43.050Z,7.85
2023-01-30T04:22:10.681Z,8.48
2023-01-30T04:24:38.086Z,9.25
2023-01-30T04:27:05.568Z,9.07
2023-01-30T04:29:35.157Z,7.47
2023-01-30T04:32:03.422Z,8.00
2023-01-30T04:34:31.248Z,7.40
2023-01-30T04:36:58.374Z,10.20
2023-01-30T04:39:25.482Z,7.75
2023-01-30T04:41:53.092Z,9.20
2023-01-30T04:44:20.352Z,9.00
2023-01-30T04:46:47.762Z,9.18
2023-01-30T04:49:15.373Z,9.95
2023-01-30T04:51:42.577Z,7.40
2023-01-30T04:54:09.669Z,7.68
2023-01-30T04:56:37.020Z,9.18
2023-01-30T04:59:05.265Z,8.65
2023-01-30T05:01:35.543Z,9.27
2023-01-30T05:04:04.159Z,9.05
2023-01-30T05:06:31.979Z,7.70
2023-01-30T05:08:59.461Z,6.70
2023-01-30T05:11:29.241Z,8.10
2023-01-30T05:13:56.649Z,9.18
2023-01-30T05:16:24.466Z,7.72
2023-01-30T05:18:51.922Z,7.80
2023-01-30T05:21:22.594Z,8.23
2023-01-30T05:23:51.239Z,7.20
2023-01-30T05:26:19.342Z,8.48
2023-01-30T05:28:52.071Z,8.85
2023-01-30T05:31:19.533Z,7.97
2023-01-30T05:33:48.754Z,8.98
2023-01-30T05:36:17.961Z,8.02
2023-01-30T05:38:45.968Z,7.12
2023-01-30T05:41:14.719Z,7.97
2023-01-30T05:43:42.005Z,8.18
2023-01-30T05:46:11.423Z,9.27
2023-01-30T05:48:38.677Z,9.18
2023-01-30T05:51:07.007Z,7.53
2023-01-30T05:53:35.195Z,9.75
2023-01-30T05:56:04.592Z,8.05
2023-01-30T05:58:32.821Z,7.65
2023-01-30T06:01:02.179Z,8.63
2023-01-30T06:03:29.734Z,8.13
2023-01-30T06:05:57.063Z,9.10
2023-01-30T06:08:24.327Z,6.28
2023-01-30T06:10:51.722Z,7.10
2023-01-30T06:13:19.064Z,8.68
2023-01-30T06:15:46.469Z,9.20
2023-01-30T06:18:14.256Z,7.97
2023-01-30T06:20:41.323Z,7.15
2023-01-30T06:23:09.092Z,9.55
2023-01-30T06:25:36.468Z,8.68
2023-01-30T06:28:03.663Z,8.63
2023-01-30T06:30:30.782Z,9.60
2023-01-30T06:32:58.695Z,7.25
2023-01-30T06:35:26.464Z,8.02
2023-01-30T06:37:53.531Z,9.32
2023-01-30T06:40:20.964Z,7.90
2023-01-30T06:42:48.968Z,10.30
2023-01-30T06:45:18.440Z,8.00
2023-01-30T06:47:50.656Z,9.15
2023-01-30T06:50:19.949Z,8.35
2023-01-30T06:52:48.763Z,8.15
2023-01-30T06:55:18.227Z,8.35
2023-01-30T06:57:47.555Z,9.13
2023-01-30T07:00:20.053Z,7.87
2023-01-30T07:02:47.675Z,8.75
2023-01-30T07:05:16.217Z,8.80
2023-01-30T07:07:43.697Z,8.20
2023-01-30T07:10:12.312Z,7.97
2023-01-30T07:12:40.706Z,8.65
2023-01-30T07:15:09.151Z,8.43
2023-01-30T07:17:36.349Z,9.80
2023-01-30T07:20:04.101Z,9.23
2023-01-30T07:22:31.278Z,8.85
2023-01-30T07:24:58.361Z,8.45
2023-01-30T07:27:30.432Z,8.43
2023-01-30T07:29:57.600Z,8.27
2023-01-30T07:32:24.849Z,7.65
2023-01-30T07:34:52.226Z,9.13
2023-01-30T07:37:19.322Z,9.18
2023-01-30T07:39:46.399Z,8.38
2023-01-30T07:42:13.871Z,8.95
2023-01-30T07:44:41.105Z,9.65
2023-01-30T07:47:08.367Z,9.02
2023-01-30T07:49:35.791Z,10.25
2023-01-30T07:52:02.903Z,9.32
2023-01-30T07:54:30.340Z,8.43
2023-01-30T07:56:57.978Z,9.20
2023-01-30T07:59:25.197Z,8.27
2023-01-30T08:01:52.262Z,8.32
2023-01-30T08:04:19.630Z,8.90
2023-01-30T08:06:46.932Z,8.43
2023-01-30T08:09:14.035Z,9.30
2023-01-30T08:11:41.531Z,8.93
2023-01-30T08:14:08.719Z,8.88
2023-01-30T08:16:37.092Z,7.95
2023-01-30T08:19:06.277Z,9.52
2023-01-30T08:21:33.451Z,9.57
2023-01-30T08:24:01.481Z,9.35
2023-01-30T08:26:29.003Z,9.25
2023-01-30T08:28:56.212Z,9.27
2023-01-30T08:31:23.711Z,8.75
2023-01-30T08:33:51.155Z,10.50
2023-01-30T08:36:18.242Z,9.65
2023-01-30T08:38:45.310Z,10.40
2023-01-30T08:41:12.657Z,9.73
2023-01-30T08:43:40.403Z,9.60
2023-01-30T08:46:07.678Z,9.52
2023-01-30T08:48:49.156Z,11.02
2023-01-30T08:51:17.439Z,10.95
2023-01-30T08:53:44.948Z,10.70
2023-01-30T08:56:12.847Z,10.10
2023-01-30T08:58:41.139Z,11.20
2023-01-30T09:01:08.472Z,11.77
2023-01-30T09:03:35.592Z,10.88
2023-01-30T09:06:02.886Z,10.27
2023-01-30T09:08:30.396Z,12.02
2023-01-30T09:11:01.645Z,12.15
2023-01-30T09:13:28.907Z,10.90
2023-01-30T09:15:56.580Z,10.82
2023-01-30T09:18:24.329Z,11.40
2023-01-30T09:20:52.876Z,10.27
2023-01-30T09:23:21.073Z,10.38
2023-01-30T09:25:48.181Z,10.35
2023-01-30T09:28:15.231Z,11.35
2023-01-30T09:30:42.899Z,9.60
2023-01-30T09:33:10.023Z,10.75
2023-01-30T09:35:37.045Z,10.80
2023-01-30T09:38:05.724Z,11.77
2023-01-30T09:40:33.460Z,11.45
2023-01-30T09:43:20.851Z,11.35
2023-01-30T09:46:10.009Z,11.50
2023-01-30T09:48:43.297Z,9.63
2023-01-30T09:51:25.808Z,10.35
2023-01-30T09:54:00.980Z,10.60
2023-01-30T09:56:28.586Z,11.70
2023-01-30T09:59:02.323Z,10.90
2023-01-30T10:02:06.909Z,10.52
2023-01-30T10:04:36.752Z,11.95
2023-01-30T10:07:27.606Z,11.63
2023-01-30T10:10:02.021Z,12.35
2023-01-30T10:12:50.517Z,10.18
2023-01-30T10:15:41.789Z,9.75
2023-01-30T10:18:11.871Z,8.23
2023-01-30T10:20:45.743Z,9.65
2023-01-30T10:23:40.885Z,10.32
2023-01-30T10:26:27.387Z,9.77
2023-01-30T10:29:07.882Z,10.45
2023-01-30T10:31:47.698Z,9.15
2023-01-30T10:34:25.555Z,10.30
2023-01-30T10:36:59.371Z,10.13
2023-01-30T10:39:36.886Z,9.15
2023-01-30T10:42:14.673Z,9.60
2023-01-30T10:44:42.854Z,8.90
2023-01-30T10:47:47.606Z,11.52
2023-01-30T10:50:23.065Z,9.73
2023-01-30T10:53:02.609Z,10.25
2023-01-30T10:55:38.056Z,10.60
2023-01-30T10:58:19.730Z,9.38
2023-01-30T11:00:59.529Z,9.73
2023-01-30T11:03:27.631Z,9.43
2023-01-30T11:05:59.678Z,10.48
2023-01-30T11:08:33.787Z,10.20
2023-01-30T11:11:01.740Z,9.45
2023-01-30T11:13:33.459Z,9.35
2023-01-30T11:16:07.031Z,8.68
2023-01-30T11:21:43.464Z,9.95
2023-01-30T11:24:17.323Z,9.50
2023-01-30T11:26:47.762Z,7.78
2023-01-30T11:29:29.306Z,8.85
2023-01-30T11:31:58.534Z,8.98
2023-01-30T11:34:25.984Z,9.75
2023-01-30T11:36:53.135Z,9.63
2023-01-30T11:39:23.310Z,8.43
2023-01-30T11:41:58.914Z,9.23
2023-01-30T11:44:31.096Z,8.13
2023-01-30T11:47:00.421Z,8.23
2023-01-30T11:49:46.051Z,9.10
2023-01-30T11:52:20.543Z,7.72
2023-01-30T11:54:49.596Z,8.90
2023-01-30T11:57:18.406Z,7.82
2023-01-30T12:00:00.758Z,9.13
2023-01-30T12:02:35.886Z,8.00
2023-01-30T12:05:26.452Z,8.32
2023-01-30T12:07:53.636Z,8.07
2023-01-30T12:10:23.872Z,8.98
2023-01-30T12:12:55.501Z,8.05
2023-01-30T12:15:34.525Z,9.48
2023-01-30T12:18:11.064Z,7.35
2023-01-30T12:20:57.150Z,7.80
2023-01-30T12:23:47.400Z,9.38
2023-01-30T12:26:35.223Z,8.30
2023-01-30T12:29:17.651Z,8.60
2023-01-30T12:31:48.832Z,8.50
2023-01-30T12:34:16.985Z,8.48
2023-01-30T12:37:21.322Z,8.10
2023-01-30T12:40:06.693Z,8.23
2023-01-30T12:42:49.006Z,6.62
2023-01-30T12:45:29.668Z,8.18
2023-01-30T12:48:43.894Z,8.02
2023-01-30T12:51:37.814Z,6.50
2023-01-30T12:54:08.188Z,6.80
2023-01-30T12:56:50.433Z,7.55
2023-01-30T12:59:50.494Z,8.02
2023-01-30T13:02:51.729Z,8.30
2023-01-30T13:06:04.640Z,8.23
2023-01-30T13:08:37.824Z,7.35
2023-01-30T13:11:16.779Z,8.38
2023-01-30T13:13:46.773Z,8.40
2023-01-30T13:16:26.343Z,8.20
2023-01-30T13:19:02.914Z,8.40
2023-01-30T13:21:35.563Z,6.95
2023-01-30T13:24:18.705Z,6.62
2023-01-30T13:26:47.132Z,7.28
2023-01-30T13:29:26.915Z,7.43
2023-01-30T13:31:57.479Z,7.72
2023-01-30T13:34:36.895Z,6.80
2023-01-30T13:37:14.823Z,6.95
2023-01-30T13:39:50.379Z,7.37
2023-01-30T13:42:39.124Z,6.72
2023-01-30T13:45:07.415Z,6.90
2023-01-30T13:47:46.970Z,6.65
2023-01-30T13:50:26.128Z,7.40
2023-01-30T13:53:19.814Z,7.47
2023-01-30T13:55:48.441Z,6.47
2023-01-30T13:58:30.379Z,6.70
2023-01-30T14:00:58.066Z,7.47
2023-01-30T14:03:31.664Z,7.72
2023-01-30T14:06:00.783Z,7.63
2023-01-30T14:08:46.345Z,6.85
2023-01-30T14:11:44.897Z,7.03
2023-01-30T14:14:18.140Z,6.10
2023-01-30T14:16:51.265Z,6.68
2023-01-30T14:19:35.288Z,7.22
2023-01-30T14:22:28.685Z,7.78
2023-01-30T14:25:30.312Z,6.95
2023-01-30T14:28:00.327Z,6.75
2023-01-30T14:30:50.387Z,7.28
2023-01-30T14:33:23.823Z,7.55
2023-01-30T14:36:00.450Z,7.70
2023-01-30T14:38:38.557Z,6.97
2023-01-30T14:41:09.088Z,7.47
2023-01-30T14:43:42.568Z,7.45
2023-01-30T14:46:17.588Z,7.43
2023-01-30T14:48:53.594Z,6.72
2023-01-30T14:51:39.363Z,7.12
2023-01-30T14:54:13.158Z,7.82
2023-01-30T14:56:48.989Z,7.75
2023-01-30T14:59:15.938Z,7.85
2023-01-30T15:01:59.899Z,8.05
2023-01-30T15:05:02.213Z,7.57
2023-01-30T15:07:45.932Z,8.02
2023-01-30T15:10:26.965Z,7.32
2023-01-30T15:13:15.656Z,8.27
2023-01-30T15:16:01.836Z,7.53
2023-01-30T15:18:43.087Z,7.90
2023-01-30T15:21:22.347Z,7.68
2023-01-30T15:24:33.998Z,8.85
2023-01-30T15:27:12.406Z,8.05
2023-01-30T15:30:03.279Z,8.10
2023-01-30T15:32:32.259Z,8.70
2023-01-30T15:35:02.212Z,9.40
2023-01-30T15:37:53.064Z,8.55
2023-01-30T15:40:21.989Z,8.52
2023-01-30T15:43:34.539Z,9.40
2023-01-30T15:46:44.762Z,8.82
2023-01-30T15:49:30.176Z,8.30
2023-01-30T15:52:02.312Z,8.43
2023-01-30T15:54:29.419Z,8.30
2023-01-30T15:56:58.286Z,8.82
2023-01-30T15:59:40.087Z,8.57
2023-01-30T16:02:14.835Z,8.45
2023-01-30T16:04:42.354Z,8.80
2023-01-30T16:07:26.240Z,9.13
2023-01-30T16:10:11.498Z,8.73
2023-01-30T16:12:40.996Z,9.07
2023-01-30T16:15:31.964Z,8.20
2023-01-30T16:18:05.639Z,7.75
2023-01-30T16:21:00.476Z,8.18
2023-01-30T16:23:33.889Z,8.00
2023-01-30T16:26:01.982Z,8.55
2023-01-30T16:28:29.882Z,7.60
2023-01-30T16:31:02.392Z,9.05
2023-01-30T16:33:37.132Z,9.32
2023-01-30T16:36:26.263Z,10.02
2023-01-30T16:38:56.831Z,9.23
2023-01-30T16:41:43.314Z,9.05
2023-01-30T16:44:19.503Z,8.90
2023-01-30T16:47:06.927Z,8.15
2023-01-30T16:49:38.463Z,8.20
2023-01-30T16:52:46.940Z,8.77
2023-01-30T16:55:26.880Z,8.50
2023-01-30T16:57:56.729Z,9.77
2023-01-30T17:00:35.907Z,8.20
2023-01-30T17:03:05.876Z,8.60
2023-01-30T17:05:41.171Z,8.90
2023-01-30T17:08:52.182Z,8.45
2023-01-30T17:11:37.386Z,8.80
2023-01-30T17:14:23.289Z,8.40
2023-01-30T17:17:03.265Z,8.13
2023-01-30T17:19:30.323Z,9.10
2023-01-30T17:21:59.280Z,8.73
2023-01-30T17:24:26.430Z,8.93
2023-01-30T17:26:59.297Z,8.70
2023-01-30T17:29:41.995Z,9.23
2023-01-30T17:32:12.254Z,8.65
2023-01-30T17:34:41.180Z,9.57
2023-01-30T17:37:17.354Z,9.50
2023-01-30T17:39:44.739Z,9.43
2023-01-30T17:42:13.266Z,9.85
2023-01-30T17:44:40.980Z,9.32
2023-01-30T17:47:12.180Z,8.27
2023-01-30T17:49:39.977Z,9.82
2023-01-30T17:52:07.205Z,8.82
2023-01-30T17:54:34.577Z,8.98
2023-01-30T17:57:04.569Z,5.20
2023-01-30T17:59:32.653Z,6.50
2023-01-30T18:02:01.202Z,9.15
2023-01-30T18:04:28.539Z,8.05
2023-01-30T18:07:08.361Z,7.95
2023-01-30T18:09:37.927Z,7.72
2023-01-30T18:12:05.134Z,7.75
2023-01-30T18:14:32.350Z,7.80
2023-01-30T18:17:01.054Z,8.13
2023-01-30T18:19:29.032Z,6.70
2023-01-30T18:21:58.315Z,6.07
2023-01-30T18:24:25.864Z,5.25
2023-01-30T18:26:52.922Z,6.43
2023-01-30T18:29:20.055Z,4.62
2023-01-30T18:31:47.590Z,4.90
2023-01-30T18:34:14.800Z,4.45
2023-01-30T18:36:42.564Z,4.32
2023-01-30T18:39:11.839Z,4.82
2023-01-30T18:41:38.981Z,4.30
2023-01-30T18:44:06.653Z,4.18
2023-01-30T18:46:34.326Z,4.70
2023-01-30T18:49:01.563Z,4.97
2023-01-30T18:51:33.522Z,5.12
2023-01-30T18:54:01.564Z,3.75
2023-01-30T18:56:33.245Z,4.40
2023-01-30T18:59:05.206Z,4.82
2023-01-30T19:01:35.739Z,4.22
2023-01-30T19:04:04.830Z,4.62
2023-01-30T19:06:32.270Z,5.20
2023-01-30T19:08:59.545Z,4.53
2023-01-30T19:11:45.406Z,5.12
2023-01-30T19:14:14.341Z,4.97
2023-01-30T19:16:41.711Z,4.60
2023-01-30T19:19:09.491Z,6.10
2023-01-30T19:21:37.072Z,5.47
2023-01-30T19:24:06.818Z,5.68
2023-01-30T19:26:34.812Z,5.57
2023-01-30T19:29:02.147Z,6.10
2023-01-30T19:31:29.587Z,5.40
2023-01-30T19:33:59.009Z,5.70
2023-01-30T19:36:29.343Z,5.82
2023-01-30T19:38:59.313Z,5.00
2023-01-30T19:41:29.444Z,5.57
2023-01-30T19:43:57.672Z,4.62
2023-01-30T19:46:25.321Z,4.60
2023-01-30T19:48:52.890Z,5.47
2023-01-30T19:51:27.999Z,4.97
2023-01-30T19:53:58.409Z,4.97
2023-01-30T19:56:27.213Z,5.45
2023-01-30T19:58:56.158Z,5.82
2023-01-30T20:01:27.561Z,4.95
2023-01-30T20:03:54.941Z,5.03
2023-01-30T20:06:27.987Z,5.50
2023-01-30T20:08:58.357Z,5.20
2023-01-30T20:11:25.944Z,4.25
2023-01-30T20:13:55.899Z,4.75
2023-01-30T20:16:25.475Z,4.57
2023-01-30T20:18:57.966Z,4.82
2023-01-30T20:21:26.792Z,4.43
2023-01-30T20:23:54.958Z,4.78
2023-01-30T20:26:27.608Z,5.62
2023-01-30T20:28:55.675Z,5.03
2023-01-30T20:31:25.151Z,5.57
2023-01-30T20:33:53.109Z,4.68
2023-01-30T20:36:20.478Z,5.68
2023-01-30T20:38:49.103Z,5.05
2023-01-30T20:41:21.809Z,5.25
2023-01-30T20:43:51.521Z,5.43
2023-01-30T20:46:21.249Z,5.53
2023-01-30T20:48:52.229Z,5.37
2023-01-30T20:51:26.369Z,5.60
2023-01-30T20:53:57.829Z,5.47
2023-01-30T20:56:26.932Z,5.18
2023-01-30T20:58:54.322Z,5.60
2023-01-30T21:01:23.936Z,5.20
2023-01-30T21:03:53.120Z,4.35
2023-01-30T21:06:41.886Z,4.78
2023-01-30T21:09:12.631Z,4.50
2023-01-30T21:11:40.245Z,5.22
2023-01-30T21:14:07.765Z,3.45
2023-01-30T21:16:35.818Z,4.45
2023-01-30T21:19:06.041Z,3.87
2023-01-30T21:21:36.989Z,2.47
2023-01-30T21:24:07.363Z,3.30
2023-01-30T21:26:37.055Z,3.15
2023-01-30T21:29:06.555Z,3.97
2023-01-30T21:31:34.741Z,2.80
2023-01-30T21:34:02.505Z,2.65
2023-01-30T21:36:30.539Z,2.20
2023-01-30T21:39:16.319Z,3.42
2023-01-30T21:41:44.991Z,2.70
2023-01-30T21:44:13.084Z,2.80
2023-01-30T21:46:45.370Z,2.67
2023-01-30T21:49:13.631Z,2.92
2023-01-30T21:51:41.908Z,2.90
2023-01-30T21:54:09.033Z,2.75
2023-01-30T21:56:36.760Z,2.85
2023-01-30T21:59:05.514Z,2.65
2023-01-30T22:01:33.949Z,2.67
2023-01-30T22:04:04.032Z,3.20
2023-01-30T22:06:31.466Z,2.78
2023-01-30T22:09:00.580Z,3.15
2023-01-30T22:11:29.436Z,2.62
2023-01-30T22:13:57.272Z,2.78
2023-01-30T22:16:26.645Z,2.85
2023-01-30T22:18:56.387Z,2.70
2023-01-30T22:21:26.021Z,3.42
2023-01-30T22:23:54.729Z,3.03
2023-01-30T22:26:24.109Z,3.67
2023-01-30T22:28:58.921Z,2.72
2023-01-30T22:31:28.419Z,2.65
2023-01-30T22:33:56.487Z,3.10
2023-01-30T22:36:25.588Z,2.67
2023-01-30T22:38:54.194Z,3.10
2023-01-30T22:41:23.344Z,3.50
2023-01-30T22:43:55.483Z,3.30
2023-01-30T22:46:25.449Z,3.08
2023-01-30T22:48:53.067Z,2.60
2023-01-30T22:51:25.182Z,2.28
2023-01-30T22:53:54.657Z,2.47
2023-01-30T22:56:25.237Z,2.60
2023-01-30T22:58:53.190Z,2.35
2023-01-30T23:01:28.744Z,3.00
2023-01-30T23:04:01.345Z,2.72
2023-01-30T23:06:30.092Z,1.83
2023-01-30T23:08:58.326Z,2.35
2023-01-30T23:11:34.729Z,2.70
2023-01-30T23:14:16.586Z,2.22
2023-01-30T23:16:44.628Z,1.83
2023-01-30T23:19:13.307Z,2.47
2023-01-30T23:21:45.487Z,2.03
2023-01-30T23:24:22.114Z,2.10
2023-01-30T23:26:50.875Z,2.37
2023-01-30T23:29:20.080Z,2.40
2023-01-30T23:31:47.830Z,1.85
2023-01-30T23:34:17.732Z,2.65
2023-01-30T23:36:45.557Z,2.75
2023-01-30T23:39:13.929Z,2.47
2023-01-30T23:41:42.190Z,1.80
2023-01-30T23:44:09.811Z,2.50
2023-01-30T23:46:40.033Z,1.60
2023-01-30T23:49:12.503Z,1.85
2023-01-30T23:51:43.022Z,2.60
2023-01-30T23:54:10.965Z,2.90
2023-01-30T23:56:39.935Z,2.42
2023-01-30T23:59:07.644Z,2.97
